Eden, New York
Current Conditions -  °F | °C
As of 5:53 AM on Wednesday 26 Nov 2014 (Local Time) from KDKK Reporting Station
Overcast Overcast  
Wind Chill: 28°   Ceiling: 3000
Heat Index: 33°   Visibility: 10mi
Dew Point: 24°   Wind: 6mph
Humidity: 70%   Direction: 70°ENE
Pressure: 30.18"   Gusts: NA
Location:  42.65°N, 78.9°W
Report Text: KDKK 261053Z AUTO 07005KT 10SM OVC030 01/M04 A3018 RMK AO2 SLP225 T00061044
Loading
Personal Weather Stations






























Interactive Weather Map New forecast layout! Learn more

10-Day Weather Forecast

Advertisements
Track Severe Weather on mobile